createdAt,value
2022-11-19T00:01:50.877Z,4.40
2022-11-19T00:04:17.807Z,5.70
2022-11-19T00:06:44.841Z,3.55
2022-11-19T00:09:14.427Z,3.30
2022-11-19T00:12:00.185Z,2.90
2022-11-19T00:14:27.236Z,2.55
2022-11-19T00:16:54.124Z,1.65
2022-11-19T00:19:21.178Z,2.58
2022-11-19T00:21:50.252Z,4.18
2022-11-19T00:24:17.164Z,3.60
2022-11-19T00:26:44.597Z,2.13
2022-11-19T00:29:17.932Z,2.60
2022-11-19T00:31:45.246Z,1.27
2022-11-19T00:34:12.438Z,3.13
2022-11-19T00:36:39.459Z,1.45
2022-11-19T00:39:06.608Z,3.38
2022-11-19T00:41:33.487Z,0.98
2022-11-19T00:44:00.331Z,2.08
2022-11-19T00:46:31.364Z,2.00
2022-11-19T00:48:59.894Z,1.27
2022-11-19T00:51:29.462Z,2.30
2022-11-19T00:53:57.070Z,3.80
2022-11-19T00:56:26.511Z,1.50
2022-11-19T00:58:54.445Z,1.33
2022-11-19T01:01:24.702Z,2.25
2022-11-19T01:03:53.713Z,2.15
2022-11-19T01:06:23.262Z,1.27
2022-11-19T01:08:51.818Z,1.80
2022-11-19T01:11:22.617Z,1.75
2022-11-19T01:13:49.795Z,2.10
2022-11-19T01:16:19.684Z,2.13
2022-11-19T01:18:49.061Z,5.60
2022-11-19T01:21:17.622Z,1.88
2022-11-19T01:23:45.359Z,3.95
2022-11-19T01:26:13.583Z,2.08
2022-11-19T01:28:41.076Z,0.80
2022-11-19T01:31:25.134Z,3.67
2022-11-19T01:33:53.492Z,1.02
2022-11-19T01:36:24.025Z,1.45
2022-11-19T01:38:51.900Z,1.00
2022-11-19T01:41:24.616Z,2.38
2022-11-19T01:43:54.393Z,2.10
2022-11-19T01:46:24.054Z,4.95
2022-11-19T01:48:57.341Z,1.77
2022-11-19T01:51:31.387Z,2.78
2022-11-19T01:54:02.055Z,3.90
2022-11-19T01:56:30.314Z,2.72
2022-11-19T01:59:07.582Z,1.83
2022-11-19T02:01:34.870Z,1.58
2022-11-19T02:04:03.286Z,4.65
2022-11-19T02:06:31.630Z,1.50
2022-11-19T02:08:59.244Z,2.13
2022-11-19T02:11:27.558Z,3.55
2022-11-19T02:14:03.207Z,2.43
2022-11-19T02:16:38.068Z,2.45
2022-11-19T02:19:16.983Z,2.10
2022-11-19T02:22:02.531Z,5.38
2022-11-19T02:24:48.809Z,4.47
2022-11-19T02:27:37.512Z,3.05
2022-11-19T02:30:10.114Z,3.40
2022-11-19T02:32:45.787Z,5.35
2022-11-19T02:35:24.314Z,5.05
2022-11-19T02:38:08.453Z,2.88
2022-11-19T02:40:44.070Z,3.25
2022-11-19T02:43:27.281Z,5.85
2022-11-19T02:46:00.142Z,4.18
2022-11-19T02:48:35.874Z,5.15
2022-11-19T02:51:05.193Z,7.53
2022-11-19T02:53:33.396Z,3.90
2022-11-19T02:56:34.482Z,5.10
2022-11-19T02:59:21.356Z,7.05
2022-11-19T03:02:07.988Z,7.32
2022-11-19T03:04:35.447Z,6.70
2022-11-19T03:07:17.199Z,6.22
2022-11-19T03:10:07.156Z,9.07
2022-11-19T03:12:54.611Z,7.93
2022-11-19T03:16:05.928Z,9.45
2022-11-19T03:18:44.867Z,10.73
2022-11-19T03:21:24.485Z,9.10
2022-11-19T03:23:58.195Z,7.25
2022-11-19T03:26:30.738Z,8.45
2022-11-19T03:29:04.410Z,9.85
2022-11-19T03:31:34.789Z,13.18
2022-11-19T03:34:10.421Z,9.52
2022-11-19T03:36:40.992Z,10.57
2022-11-19T03:39:12.988Z,11.38
2022-11-19T03:41:42.046Z,11.05
2022-11-19T03:44:14.633Z,10.50
2022-11-19T03:46:43.973Z,10.13
2022-11-19T03:49:22.885Z,10.20
2022-11-19T03:52:02.669Z,13.32
2022-11-19T03:54:29.779Z,11.68
2022-11-19T03:56:58.932Z,11.40
2022-11-19T03:59:29.885Z,13.55
2022-11-19T04:02:01.500Z,13.63
2022-11-19T04:04:38.338Z,12.57
2022-11-19T04:07:18.573Z,11.73
2022-11-19T04:09:45.653Z,9.98
2022-11-19T04:12:19.305Z,11.00
2022-11-19T04:14:46.619Z,13.55
2022-11-19T04:17:14.005Z,10.05
2022-11-19T04:19:41.380Z,13.35
2022-11-19T04:22:08.494Z,9.80
2022-11-19T04:24:35.568Z,11.27
2022-11-19T04:27:02.483Z,13.02
2022-11-19T04:29:29.467Z,10.55
2022-11-19T04:31:56.372Z,9.98
2022-11-19T04:34:23.525Z,11.15
2022-11-19T04:36:50.500Z,10.75
2022-11-19T04:39:17.559Z,10.82
2022-11-19T04:41:44.649Z,13.13
2022-11-19T04:44:11.540Z,11.25
2022-11-19T04:46:38.684Z,10.52
2022-11-19T04:49:05.733Z,12.00
2022-11-19T04:51:32.757Z,11.35
2022-11-19T04:53:59.625Z,12.00
2022-11-19T04:56:26.541Z,13.90
2022-11-19T04:58:53.361Z,12.75
2022-11-19T05:01:21.809Z,12.43
2022-11-19T05:03:48.997Z,12.80
2022-11-19T05:06:16.074Z,13.40
2022-11-19T05:08:43.484Z,10.88
2022-11-19T05:11:10.784Z,12.00
2022-11-19T05:13:37.886Z,15.82
2022-11-19T05:16:05.068Z,13.25
2022-11-19T05:18:32.367Z,13.65
2022-11-19T05:20:59.595Z,12.68
2022-11-19T05:23:26.937Z,14.05
2022-11-19T05:25:53.902Z,15.50
2022-11-19T05:31:05.950Z,13.55
2022-11-19T05:33:34.497Z,15.05
2022-11-19T05:36:02.293Z,14.63
2022-11-19T05:38:29.300Z,14.32
2022-11-19T05:40:56.576Z,14.05
2022-11-19T05:43:23.706Z,14.30
2022-11-19T05:45:50.763Z,17.25
2022-11-19T05:48:17.668Z,20.50
2022-11-19T05:50:44.524Z,18.20
2022-11-19T05:53:11.795Z,17.65
2022-11-19T05:55:38.911Z,14.32
2022-11-19T05:58:06.024Z,16.60
2022-11-19T06:00:32.874Z,16.27
2022-11-19T06:03:01.171Z,16.85
2022-11-19T06:05:28.683Z,17.17
2022-11-19T06:07:55.627Z,16.33
2022-11-19T06:10:22.707Z,18.90
2022-11-19T06:12:50.407Z,18.75
2022-11-19T06:15:17.425Z,18.65
2022-11-19T06:17:44.493Z,17.98
2022-11-19T06:20:11.831Z,16.83
2022-11-19T06:22:39.961Z,16.63
2022-11-19T06:25:07.933Z,20.17
2022-11-19T06:27:35.589Z,20.45
2022-11-19T06:30:02.901Z,19.05
2022-11-19T06:32:30.724Z,20.15
2022-11-19T06:35:14.486Z,16.30
2022-11-19T06:37:50.490Z,20.02
2022-11-19T06:40:23.551Z,21.45
2022-11-19T06:42:52.477Z,19.67
2022-11-19T06:45:21.587Z,21.80
2022-11-19T06:47:49.458Z,23.30
2022-11-19T06:50:16.712Z,19.45
2022-11-19T06:52:43.776Z,18.88
2022-11-19T06:55:10.873Z,19.58
2022-11-19T06:57:39.020Z,19.63
2022-11-19T07:00:06.895Z,22.25
2022-11-19T07:02:33.973Z,24.15
2022-11-19T07:05:01.258Z,24.95
2022-11-19T07:07:28.389Z,20.58
2022-11-19T07:09:55.429Z,21.35
2022-11-19T07:12:22.341Z,29.85
2022-11-19T07:14:49.416Z,20.20
2022-11-19T07:17:16.352Z,21.13
2022-11-19T07:19:43.651Z,21.13
2022-11-19T07:22:10.912Z,22.98
2022-11-19T07:24:38.170Z,25.95
2022-11-19T07:27:05.099Z,20.95
2022-11-19T07:29:32.329Z,21.10
2022-11-19T07:31:59.475Z,20.35
2022-11-19T07:34:26.318Z,22.42
2022-11-19T07:36:53.447Z,24.65
2022-11-19T07:39:20.834Z,22.58
2022-11-19T07:42:07.039Z,21.48
2022-11-19T07:44:34.946Z,23.70
2022-11-19T07:47:01.898Z,21.90
2022-11-19T07:49:28.998Z,23.00
2022-11-19T07:51:56.025Z,20.70
2022-11-19T07:54:23.193Z,20.40
2022-11-19T07:56:50.456Z,22.17
2022-11-19T07:59:18.131Z,20.38
2022-11-19T08:01:45.362Z,18.20
2022-11-19T08:04:12.367Z,20.75
2022-11-19T08:06:39.382Z,17.50
2022-11-19T08:09:06.505Z,17.27
2022-11-19T08:11:33.623Z,18.80
2022-11-19T08:14:03.922Z,16.48
2022-11-19T08:16:51.911Z,18.10
2022-11-19T08:19:19.404Z,17.65
2022-11-19T08:21:47.301Z,17.48
2022-11-19T08:24:16.307Z,16.65
2022-11-19T08:26:44.326Z,18.33
2022-11-19T08:29:16.588Z,16.67
2022-11-19T08:31:47.279Z,18.17
2022-11-19T08:34:15.483Z,18.73
2022-11-19T08:36:42.589Z,16.92
2022-11-19T08:39:10.094Z,16.50
2022-11-19T08:41:56.136Z,19.88
2022-11-19T08:44:23.339Z,17.70
2022-11-19T08:46:50.743Z,19.60
2022-11-19T08:49:17.951Z,17.70
2022-11-19T08:51:45.839Z,17.15
2022-11-19T08:54:13.388Z,17.48
2022-11-19T08:56:40.637Z,17.77
2022-11-19T08:59:07.576Z,17.25
2022-11-19T09:01:34.429Z,17.23
2022-11-19T09:04:01.913Z,17.33
2022-11-19T09:06:28.872Z,14.82
2022-11-19T09:08:56.087Z,15.55
2022-11-19T09:11:23.230Z,16.15
2022-11-19T09:13:50.499Z,14.20
2022-11-19T09:16:17.681Z,14.18
2022-11-19T09:18:44.983Z,12.50
2022-11-19T09:21:12.864Z,14.13
2022-11-19T09:23:42.709Z,13.70
2022-11-19T09:26:13.791Z,14.23
2022-11-19T09:28:41.757Z,14.40
2022-11-19T09:31:15.088Z,17.17
2022-11-19T09:33:44.364Z,18.63
2022-11-19T09:36:12.524Z,15.68
2022-11-19T09:38:40.905Z,13.50
2022-11-19T09:41:45.411Z,19.57
2022-11-19T09:44:29.956Z,16.40
2022-11-19T09:47:21.571Z,10.82
2022-11-19T09:50:22.292Z,10.50
2022-11-19T09:52:59.293Z,10.38
2022-11-19T09:55:36.788Z,8.70
2022-11-19T09:58:07.490Z,7.72
2022-11-19T10:00:34.609Z,7.10
2022-11-19T10:03:11.493Z,13.63
2022-11-19T10:05:41.482Z,6.82
2022-11-19T10:08:16.537Z,8.80
2022-11-19T10:11:02.563Z,9.30
2022-11-19T10:14:18.254Z,7.28
2022-11-19T10:17:07.884Z,8.75
2022-11-19T10:19:47.373Z,5.78
2022-11-19T10:22:17.280Z,7.40
2022-11-19T10:25:07.585Z,6.57
2022-11-19T10:28:02.128Z,7.45
2022-11-19T10:30:31.147Z,7.57
2022-11-19T10:33:15.002Z,10.27
2022-11-19T10:35:46.193Z,13.15
2022-11-19T10:38:26.859Z,11.73
2022-11-19T10:41:00.222Z,9.70
2022-11-19T10:43:37.081Z,7.70
2022-11-19T10:46:09.218Z,5.35
2022-11-19T10:48:43.341Z,5.90
2022-11-19T10:51:19.331Z,5.13
2022-11-19T10:53:46.434Z,7.38
2022-11-19T10:56:18.108Z,7.55
2022-11-19T10:58:49.203Z,4.03
2022-11-19T11:01:31.533Z,6.43
2022-11-19T11:04:13.385Z,6.00
2022-11-19T11:06:52.572Z,7.72
2022-11-19T11:15:21.768Z,8.93
2022-11-19T11:18:03.737Z,8.38
2022-11-19T11:20:31.626Z,8.82
2022-11-19T11:23:12.185Z,8.57
2022-11-19T11:28:16.420Z,10.15
2022-11-19T11:31:00.173Z,7.43
2022-11-19T11:33:43.409Z,8.88
2022-11-19T11:36:20.563Z,5.55
2022-11-19T11:38:50.703Z,5.80
2022-11-19T11:42:04.359Z,5.20
2022-11-19T11:44:20.834Z,6.38
2022-11-19T11:47:23.288Z,8.13
2022-11-19T11:49:57.644Z,8.98
2022-11-19T11:52:53.453Z,8.45
2022-11-19T11:55:23.400Z,6.53
2022-11-19T11:57:57.779Z,6.07
2022-11-19T12:00:56.037Z,5.90
2022-11-19T12:03:23.834Z,5.72
2022-11-19T12:05:50.832Z,5.82
2022-11-19T12:09:00.416Z,7.13
2022-11-19T12:11:54.178Z,5.68
2022-11-19T12:14:46.251Z,7.63
2022-11-19T12:17:46.574Z,5.95
2022-11-19T12:20:45.047Z,7.32
2022-11-19T12:23:33.697Z,7.85
2022-11-19T12:26:19.550Z,6.43
2022-11-19T12:29:11.586Z,7.38
2022-11-19T12:31:59.961Z,5.97
2022-11-19T12:34:59.176Z,5.93
2022-11-19T12:40:30.057Z,7.10
2022-11-19T12:43:13.484Z,8.63
2022-11-19T12:46:03.189Z,6.65
2022-11-19T12:48:36.661Z,10.32
2022-11-19T12:51:04.608Z,5.72
2022-11-19T12:53:59.075Z,7.05
2022-11-19T12:56:42.424Z,7.30
2022-11-19T12:59:34.386Z,5.80
2022-11-19T13:02:08.041Z,6.53
2022-11-19T13:04:48.481Z,7.20
2022-11-19T13:07:23.230Z,7.65
2022-11-19T13:10:00.586Z,5.50
2022-11-19T13:12:35.482Z,7.72
2022-11-19T13:15:08.719Z,7.53
2022-11-19T13:17:40.724Z,7.13
2022-11-19T13:20:38.061Z,7.80
2022-11-19T13:23:07.222Z,6.53
2022-11-19T13:25:42.687Z,9.43
2022-11-19T13:28:46.349Z,9.98
2022-11-19T13:31:41.762Z,9.27
2022-11-19T13:34:47.921Z,11.68
2022-11-19T13:37:21.696Z,8.25
2022-11-19T13:40:02.080Z,8.65
2022-11-19T13:43:25.043Z,8.30
2022-11-19T13:46:00.292Z,7.93
2022-11-19T13:48:34.262Z,9.25
2022-11-19T13:51:04.352Z,8.07
2022-11-19T13:53:38.028Z,9.00
2022-11-19T13:56:12.290Z,8.80
2022-11-19T13:58:55.040Z,8.98
2022-11-19T14:01:47.627Z,8.50
2022-11-19T14:04:27.250Z,8.93
2022-11-19T14:07:13.241Z,7.65
2022-11-19T14:09:51.848Z,7.18
2022-11-19T14:12:53.210Z,9.07
2022-11-19T14:15:48.081Z,7.80
2022-11-19T14:18:54.690Z,9.43
2022-11-19T14:21:43.479Z,9.57
2022-11-19T14:24:44.797Z,10.43
2022-11-19T14:27:27.739Z,7.68
2022-11-19T14:29:59.235Z,10.75
2022-11-19T14:32:46.336Z,9.00
2022-11-19T14:35:27.230Z,8.63
2022-11-19T14:37:58.022Z,12.18
2022-11-19T14:40:33.993Z,10.93
2022-11-19T14:43:19.762Z,13.65
2022-11-19T14:46:05.261Z,16.65
2022-11-19T14:48:47.452Z,17.23
2022-11-19T14:51:34.668Z,10.77
2022-11-19T14:54:14.041Z,12.90
2022-11-19T14:56:42.900Z,21.38
2022-11-19T14:59:16.215Z,19.60
2022-11-19T15:01:55.668Z,15.82
2022-11-19T15:06:52.558Z,15.60
2022-11-19T15:09:50.692Z,17.08
2022-11-19T15:12:19.870Z,15.27
2022-11-19T15:15:17.233Z,22.05
2022-11-19T15:17:45.340Z,19.70
2022-11-19T15:20:22.507Z,15.98
2022-11-19T15:23:05.994Z,19.65
2022-11-19T15:25:44.704Z,16.60
2022-11-19T15:28:30.617Z,17.38
2022-11-19T15:31:04.857Z,17.85
2022-11-19T15:34:26.090Z,15.85
2022-11-19T15:37:00.994Z,15.25
2022-11-19T15:39:43.312Z,15.10
2022-11-19T15:42:34.614Z,14.63
2022-11-19T15:45:08.235Z,16.33
2022-11-19T15:47:47.128Z,16.67
2022-11-19T15:50:20.852Z,19.67
2022-11-19T15:52:59.638Z,16.13
2022-11-19T15:55:32.056Z,16.98
2022-11-19T15:58:12.669Z,12.13
2022-11-19T16:00:48.336Z,9.73
2022-11-19T16:03:16.503Z,6.50
2022-11-19T16:05:50.249Z,6.07
2022-11-19T16:08:18.020Z,4.97
2022-11-19T16:10:47.989Z,6.88
2022-11-19T16:13:42.385Z,7.32
2022-11-19T16:16:42.793Z,6.20
2022-11-19T16:19:14.271Z,5.80
2022-11-19T16:21:43.449Z,6.63
2022-11-19T16:24:32.489Z,6.38
2022-11-19T16:27:01.460Z,6.70
2022-11-19T16:29:28.708Z,5.85
2022-11-19T16:32:01.998Z,5.88
2022-11-19T16:34:31.688Z,4.43
2022-11-19T16:36:59.743Z,8.90
2022-11-19T16:39:29.692Z,7.78
2022-11-19T16:42:19.810Z,6.35
2022-11-19T16:44:50.094Z,8.57
2022-11-19T16:47:26.281Z,10.52
2022-11-19T16:50:32.458Z,11.13
2022-11-19T16:53:01.147Z,15.15
2022-11-19T16:55:28.981Z,11.60
2022-11-19T16:57:59.253Z,14.43
2022-11-19T17:00:38.376Z,13.23
2022-11-19T17:03:20.938Z,15.10
2022-11-19T17:05:51.973Z,16.23
2022-11-19T17:08:29.199Z,15.88
2022-11-19T17:11:35.226Z,17.60
2022-11-19T17:14:17.708Z,16.20
2022-11-19T17:16:49.272Z,15.60
2022-11-19T17:19:27.152Z,16.88
2022-11-19T17:22:01.856Z,15.43
2022-11-19T17:24:40.555Z,29.23
2022-11-19T17:27:11.619Z,15.37
2022-11-19T17:29:38.717Z,17.95
2022-11-19T17:32:05.999Z,18.95
2022-11-19T17:34:45.043Z,13.80
2022-11-19T17:37:12.416Z,16.58
2022-11-19T17:39:39.400Z,20.75
2022-11-19T17:42:25.080Z,22.13
2022-11-19T17:44:53.639Z,28.98
2022-11-19T17:47:23.606Z,27.52
2022-11-19T17:49:54.459Z,24.40
2022-11-19T17:52:27.656Z,25.55
2022-11-19T17:55:02.742Z,37.63
2022-11-19T17:57:31.316Z,42.85
2022-11-19T17:59:58.178Z,26.73
2022-11-19T18:02:25.310Z,26.00
2022-11-19T18:04:52.353Z,22.05
2022-11-19T18:07:19.531Z,36.22
2022-11-19T18:09:46.676Z,26.35
2022-11-19T18:12:17.104Z,27.95
2022-11-19T18:14:46.376Z,27.88
2022-11-19T18:17:15.085Z,23.95
2022-11-19T18:19:42.319Z,32.08
2022-11-19T18:22:18.781Z,25.27
2022-11-19T18:24:50.342Z,23.95
2022-11-19T18:27:17.234Z,19.77
2022-11-19T18:29:44.699Z,23.73
2022-11-19T18:32:15.251Z,22.38
2022-11-19T18:34:43.457Z,17.98
2022-11-19T18:37:11.111Z,19.75
2022-11-19T18:39:38.252Z,22.83
2022-11-19T18:42:05.741Z,30.38
2022-11-19T18:44:35.534Z,32.95
2022-11-19T18:47:07.708Z,26.08
2022-11-19T18:49:35.318Z,25.33
2022-11-19T18:52:04.297Z,25.63
2022-11-19T18:54:31.349Z,25.17
2022-11-19T18:56:58.686Z,26.15
2022-11-19T18:59:25.616Z,23.80
2022-11-19T19:01:55.679Z,18.25
2022-11-19T19:04:24.228Z,22.27
2022-11-19T19:06:51.599Z,15.73
2022-11-19T19:09:22.013Z,16.80
2022-11-19T19:12:13.587Z,15.55
2022-11-19T19:14:42.219Z,14.02
2022-11-19T19:17:09.963Z,21.40
2022-11-19T19:19:37.319Z,17.95
2022-11-19T19:22:04.888Z,14.00
2022-11-19T19:24:32.649Z,14.80
2022-11-19T19:27:00.982Z,15.10
2022-11-19T19:29:28.208Z,15.63
2022-11-19T19:31:55.390Z,12.18
2022-11-19T19:34:22.701Z,15.32
2022-11-19T19:36:53.257Z,15.10
2022-11-19T19:39:21.235Z,17.23
2022-11-19T19:41:49.472Z,16.35
2022-11-19T19:44:16.915Z,14.02
2022-11-19T19:46:43.887Z,17.10
2022-11-19T19:49:10.919Z,25.70
2022-11-19T19:51:38.075Z,29.20
2022-11-19T19:54:05.024Z,21.65
2022-11-19T19:56:32.884Z,17.48
2022-11-19T19:59:00.998Z,17.17
2022-11-19T20:01:33.153Z,17.17
2022-11-19T20:04:06.021Z,25.38
2022-11-19T20:06:34.557Z,18.45
2022-11-19T20:09:07.021Z,14.97
2022-11-19T20:11:36.155Z,41.05
2022-11-19T20:14:03.651Z,37.85
2022-11-19T20:16:31.956Z,27.42
2022-11-19T20:19:00.396Z,19.73
2022-11-19T20:21:31.737Z,26.27
2022-11-19T20:23:59.108Z,15.68
2022-11-19T20:26:29.398Z,26.58
2022-11-19T20:29:04.631Z,19.20
2022-11-19T20:31:33.493Z,19.17
2022-11-19T20:34:04.279Z,18.17
2022-11-19T20:36:34.010Z,18.60
2022-11-19T20:39:01.576Z,17.10
2022-11-19T20:41:47.959Z,20.55
2022-11-19T20:44:25.686Z,22.25
2022-11-19T20:46:54.195Z,30.20
2022-11-19T20:49:24.730Z,25.88
2022-11-19T20:51:52.717Z,23.45
2022-11-19T20:54:21.489Z,19.80
2022-11-19T20:56:50.022Z,18.63
2022-11-19T20:59:17.441Z,19.35
2022-11-19T21:01:44.876Z,24.92
2022-11-19T21:04:12.119Z,21.60
2022-11-19T21:06:39.863Z,28.10
2022-11-19T21:09:07.078Z,24.23
2022-11-19T21:11:34.734Z,26.30
2022-11-19T21:14:02.397Z,19.52
2022-11-19T21:16:29.961Z,18.40
2022-11-19T21:18:56.912Z,20.15
2022-11-19T21:21:24.698Z,23.23
2022-11-19T21:23:53.449Z,22.23
2022-11-19T21:26:26.090Z,23.60
2022-11-19T21:28:55.782Z,25.70
2022-11-19T21:31:48.761Z,26.30
2022-11-19T21:34:17.905Z,21.08
2022-11-19T21:36:46.710Z,26.38
2022-11-19T21:39:15.030Z,27.77
2022-11-19T21:41:42.226Z,18.75
2022-11-19T21:44:09.990Z,21.52
2022-11-19T21:46:37.083Z,19.55
2022-11-19T21:49:04.912Z,21.40
2022-11-19T21:51:31.829Z,23.52
2022-11-19T21:53:59.332Z,19.17
2022-11-19T21:56:28.024Z,19.35
2022-11-19T21:58:55.179Z,24.05
2022-11-19T22:01:22.263Z,21.50
2022-11-19T22:03:49.588Z,19.15
2022-11-19T22:06:16.828Z,20.55
2022-11-19T22:08:43.945Z,21.67
2022-11-19T22:11:31.241Z,15.80
2022-11-19T22:14:01.573Z,15.93
2022-11-19T22:16:29.191Z,14.80
2022-11-19T22:18:56.070Z,13.45
2022-11-19T22:21:23.326Z,18.95
2022-11-19T22:23:50.269Z,14.88
2022-11-19T22:26:17.734Z,14.02
2022-11-19T22:28:44.663Z,12.43
2022-11-19T22:31:11.782Z,14.43
2022-11-19T22:33:40.810Z,13.77
2022-11-19T22:36:10.566Z,12.80
2022-11-19T22:38:39.034Z,15.65
2022-11-19T22:41:10.229Z,12.57
2022-11-19T22:43:38.760Z,10.18
2022-11-19T22:46:06.975Z,8.57
2022-11-19T22:48:33.964Z,7.85
2022-11-19T22:51:08.904Z,11.82
2022-11-19T22:53:36.915Z,12.85
2022-11-19T22:56:06.635Z,8.90
2022-11-19T22:58:34.467Z,12.23
2022-11-19T23:01:01.616Z,13.48
2022-11-19T23:03:28.964Z,10.70
2022-11-19T23:05:56.321Z,10.18
2022-11-19T23:08:23.156Z,9.63
2022-11-19T23:11:04.282Z,8.77
2022-11-19T23:13:34.205Z,11.68
2022-11-19T23:16:03.142Z,10.23
2022-11-19T23:18:33.576Z,7.82
2022-11-19T23:21:06.130Z,7.45
2022-11-19T23:23:34.613Z,5.85
2022-11-19T23:26:02.796Z,9.43
2022-11-19T23:28:31.497Z,8.93
2022-11-19T23:31:03.716Z,10.38
2022-11-19T23:33:31.030Z,12.02
2022-11-19T23:36:18.972Z,12.32
2022-11-19T23:38:45.992Z,11.32
2022-11-19T23:41:15.504Z,13.43
2022-11-19T23:43:42.886Z,9.07
2022-11-19T23:46:16.103Z,10.13
2022-11-19T23:48:44.883Z,11.50
2022-11-19T23:51:14.187Z,8.73
2022-11-19T23:53:42.311Z,9.55
2022-11-19T23:56:10.203Z,10.20
2022-11-19T23:58:37.580Z,8.57
